createdAt,value
2022-08-22T00:01:15.139Z,62.50
2022-08-22T00:02:52.897Z,50.40
2022-08-22T00:03:12.286Z,58.90
2022-08-22T00:04:09.035Z,62.60
2022-08-22T00:07:17.528Z,62.70
2022-08-22T00:10:08.850Z,62.80
2022-08-22T00:12:42.678Z,62.90
2022-08-22T00:15:42.423Z,62.90
2022-08-22T00:18:12.657Z,63.10
2022-08-22T00:20:51.388Z,63.80
2022-08-22T00:23:36.121Z,63.20
2022-08-22T00:26:17.525Z,63.30
2022-08-22T00:29:00.015Z,63.40
2022-08-22T00:31:45.909Z,63.50
2022-08-22T00:34:16.038Z,63.40
2022-08-22T00:36:56.728Z,63.60
2022-08-22T00:39:45.771Z,63.60
2022-08-22T00:42:43.294Z,63.70
2022-08-22T00:45:31.578Z,63.80
2022-08-22T00:48:30.604Z,63.80
2022-08-22T00:51:25.232Z,64.00
2022-08-22T00:54:17.633Z,64.00
2022-08-22T00:56:47.883Z,64.00
2022-08-22T00:59:48.584Z,64.10
2022-08-22T01:02:41.595Z,64.20
2022-08-22T01:05:46.425Z,64.20
2022-08-22T01:08:15.831Z,64.20
2022-08-22T01:10:58.322Z,64.20
2022-08-22T01:13:43.684Z,64.30
2022-08-22T01:16:25.150Z,64.30
2022-08-22T01:19:34.756Z,64.30
2022-08-22T01:22:25.555Z,64.40
2022-08-22T01:25:25.738Z,64.40
2022-08-22T01:28:07.337Z,64.50
2022-08-22T01:30:50.234Z,64.50
2022-08-22T01:33:49.132Z,64.70
2022-08-22T01:36:15.838Z,64.80
2022-08-22T01:39:09.335Z,64.70
2022-08-22T01:41:54.669Z,64.80
2022-08-22T01:44:41.400Z,64.80
2022-08-22T01:47:40.802Z,65.00
2022-08-22T01:50:39.208Z,64.90
2022-08-22T01:53:08.194Z,64.90
2022-08-22T01:56:03.327Z,64.80
2022-08-22T01:58:32.850Z,64.90
2022-08-22T02:01:05.542Z,64.90
2022-08-22T02:03:40.016Z,65.00
2022-08-22T02:06:16.013Z,64.90
2022-08-22T02:08:54.004Z,65.10
2022-08-22T02:11:48.813Z,65.00
2022-08-22T02:14:31.492Z,65.10
2022-08-22T02:17:13.764Z,65.10
2022-08-22T02:20:10.437Z,65.10
2022-08-22T02:22:44.642Z,65.20
2022-08-22T02:25:24.747Z,65.20
2022-08-22T02:28:09.449Z,65.20
2022-08-22T02:31:00.065Z,65.30
2022-08-22T02:33:30.939Z,65.30
2022-08-22T02:36:09.912Z,65.30
2022-08-22T02:38:47.698Z,65.10
2022-08-22T02:41:20.228Z,65.60
2022-08-22T02:44:13.394Z,65.60
2022-08-22T02:46:40.047Z,65.70
2022-08-22T02:49:27.704Z,65.80
2022-08-22T02:52:14.442Z,65.90
2022-08-22T02:55:01.757Z,65.60
2022-08-22T02:57:58.879Z,66.10
2022-08-22T03:00:31.485Z,66.20
2022-08-22T03:03:14.560Z,66.30
2022-08-22T03:05:50.201Z,66.50
2022-08-22T03:08:38.443Z,66.60
2022-08-22T03:11:18.294Z,66.90
2022-08-22T03:13:57.053Z,66.80
2022-08-22T03:16:45.684Z,66.90
2022-08-22T03:19:19.054Z,67.20
2022-08-22T03:22:00.428Z,67.30
2022-08-22T03:24:44.829Z,67.60
2022-08-22T03:27:32.452Z,67.90
2022-08-22T03:30:12.469Z,68.00
2022-08-22T03:33:12.587Z,68.10
2022-08-22T03:35:42.317Z,68.40
2022-08-22T03:38:30.557Z,68.40
2022-08-22T03:41:03.437Z,68.70
2022-08-22T03:43:39.140Z,68.70
2022-08-22T03:46:43.500Z,69.00
2022-08-22T03:49:12.899Z,69.20
2022-08-22T03:52:02.063Z,69.30
2022-08-22T03:55:03.629Z,69.60
2022-08-22T03:57:48.438Z,69.80
2022-08-22T04:00:56.630Z,69.90
2022-08-22T04:04:01.191Z,70.00
2022-08-22T04:07:11.805Z,70.20
2022-08-22T04:10:20.163Z,70.30
2022-08-22T04:13:25.954Z,70.70
2022-08-22T04:16:29.935Z,70.80
2022-08-22T04:19:13.288Z,71.10
2022-08-22T04:21:51.984Z,71.40
2022-08-22T04:24:22.234Z,71.40
2022-08-22T04:27:09.306Z,71.70
2022-08-22T04:29:42.811Z,72.10
2022-08-22T04:32:29.108Z,72.20
2022-08-22T04:35:06.923Z,72.40
2022-08-22T04:37:56.277Z,72.60
2022-08-22T04:40:46.613Z,72.90
2022-08-22T04:43:36.368Z,73.20
2022-08-22T04:46:07.953Z,73.30
2022-08-22T04:48:37.576Z,73.40
2022-08-22T04:51:16.830Z,73.70
2022-08-22T04:54:18.842Z,73.90
2022-08-22T04:57:07.190Z,74.20
2022-08-22T04:59:35.684Z,74.30
2022-08-22T05:02:08.554Z,74.30
2022-08-22T05:04:52.014Z,74.40
2022-08-22T05:07:24.412Z,74.70
2022-08-22T05:09:56.428Z,74.70
2022-08-22T05:12:31.825Z,74.80
2022-08-22T05:15:23.115Z,75.00
2022-08-22T05:17:52.368Z,75.10
2022-08-22T05:20:25.205Z,75.10
2022-08-22T05:22:58.546Z,75.30
2022-08-22T05:25:30.950Z,75.40
2022-08-22T05:28:12.006Z,75.50
2022-08-22T05:30:39.895Z,75.60
2022-08-22T05:33:14.890Z,75.60
2022-08-22T05:35:50.150Z,75.80
2022-08-22T05:38:22.209Z,75.90
2022-08-22T05:40:57.359Z,76.00
2022-08-22T05:43:26.381Z,76.10
2022-08-22T05:45:58.433Z,76.00
2022-08-22T05:48:39.308Z,76.00
2022-08-22T05:51:15.906Z,75.90
2022-08-22T05:53:48.374Z,75.90
2022-08-22T05:56:35.313Z,75.80
2022-08-22T05:59:09.573Z,75.60
2022-08-22T06:01:38.885Z,75.40
2022-08-22T06:04:08.249Z,75.30
2022-08-22T06:07:00.394Z,75.20
2022-08-22T06:09:45.771Z,75.20
2022-08-22T06:12:22.486Z,75.20
2022-08-22T06:15:15.311Z,75.00
2022-08-22T06:18:07.181Z,74.80
2022-08-22T06:20:47.860Z,74.60
2022-08-22T06:23:20.200Z,74.40
2022-08-22T06:25:49.872Z,74.20
2022-08-22T06:28:26.459Z,74.10
2022-08-22T06:30:57.176Z,73.90
2022-08-22T06:33:28.249Z,73.60
2022-08-22T06:36:21.840Z,73.40
2022-08-22T06:39:09.326Z,73.30
2022-08-22T06:42:02.953Z,73.00
2022-08-22T06:44:50.129Z,72.70
2022-08-22T06:47:39.559Z,72.50
2022-08-22T06:50:15.033Z,72.30
2022-08-22T06:53:05.600Z,72.10
2022-08-22T06:55:33.974Z,71.90
2022-08-22T06:58:11.739Z,71.60
2022-08-22T07:00:41.874Z,71.30
2022-08-22T07:03:25.540Z,71.20
2022-08-22T07:05:55.946Z,70.80
2022-08-22T07:08:25.724Z,70.60
2022-08-22T07:11:15.245Z,70.30
2022-08-22T07:13:54.860Z,70.10
2022-08-22T07:16:34.431Z,70.00
2022-08-22T07:19:01.810Z,69.90
2022-08-22T07:21:43.839Z,69.70
2022-08-22T07:24:15.949Z,69.30
2022-08-22T07:27:05.714Z,69.00
2022-08-22T07:29:55.821Z,68.50
2022-08-22T07:32:34.001Z,68.00
2022-08-22T07:35:29.789Z,67.50
2022-08-22T07:37:59.365Z,67.00
2022-08-22T07:40:39.210Z,66.70
2022-08-22T07:43:25.124Z,66.60
2022-08-22T07:46:03.636Z,66.40
2022-08-22T07:48:33.521Z,66.40
2022-08-22T07:51:08.697Z,66.40
2022-08-22T07:53:50.172Z,66.30
2022-08-22T07:56:22.286Z,65.90
2022-08-22T07:58:55.373Z,65.70
2022-08-22T08:01:23.497Z,65.60
2022-08-22T08:03:57.468Z,65.60
2022-08-22T08:06:26.844Z,65.50
2022-08-22T08:08:55.407Z,65.50
2022-08-22T08:11:25.981Z,65.50
2022-08-22T08:14:02.756Z,65.40
2022-08-22T08:16:40.338Z,65.30
2022-08-22T08:19:08.661Z,65.40
2022-08-22T08:21:56.217Z,65.60
2022-08-22T08:24:28.981Z,65.80
2022-08-22T08:27:26.279Z,65.80
2022-08-22T08:30:18.994Z,65.60
2022-08-22T08:32:57.322Z,65.30
2022-08-22T08:36:02.253Z,65.10
2022-08-22T08:38:52.250Z,64.90
2022-08-22T08:41:47.124Z,64.50
2022-08-22T08:44:38.060Z,64.00
2022-08-22T08:47:07.594Z,64.00
2022-08-22T08:49:43.351Z,64.00
2022-08-22T08:52:10.049Z,64.20
2022-08-22T08:55:19.849Z,64.00
2022-08-22T08:57:54.524Z,63.70
2022-08-22T09:00:29.051Z,63.40
2022-08-22T09:03:30.987Z,63.00
2022-08-22T09:06:18.921Z,62.50
2022-08-22T09:09:12.694Z,62.20
2022-08-22T09:12:01.477Z,62.10
2022-08-22T09:14:52.252Z,61.70
2022-08-22T09:17:39.676Z,61.40
2022-08-22T09:20:24.909Z,61.30
2022-08-22T09:23:20.222Z,61.10
2022-08-22T09:26:14.321Z,60.90
2022-08-22T09:28:53.481Z,60.40
2022-08-22T09:31:47.397Z,60.30
2022-08-22T09:34:23.980Z,60.30
2022-08-22T09:37:14.100Z,60.30
2022-08-22T09:40:22.219Z,59.90
2022-08-22T09:42:57.766Z,59.90
2022-08-22T09:45:50.763Z,60.10
2022-08-22T09:48:47.269Z,60.00
2022-08-22T09:51:41.521Z,59.80
2022-08-22T09:54:35.805Z,59.60
2022-08-22T09:57:03.099Z,59.70
2022-08-22T10:00:13.600Z,59.50
2022-08-22T10:02:54.197Z,59.10
2022-08-22T10:05:41.272Z,58.60
2022-08-22T10:08:19.831Z,58.20
2022-08-22T10:11:06.628Z,57.70
2022-08-22T10:13:38.343Z,57.20
2022-08-22T10:16:37.055Z,57.50
2022-08-22T10:19:27.125Z,56.40
2022-08-22T10:22:24.117Z,56.60
2022-08-22T10:25:34.235Z,56.30
2022-08-22T10:28:49.140Z,56.20
2022-08-22T10:31:25.498Z,55.40
2022-08-22T10:33:59.043Z,54.80
2022-08-22T10:36:38.995Z,54.50
2022-08-22T10:39:11.746Z,54.10
2022-08-22T10:41:57.786Z,53.90
2022-08-22T10:44:30.816Z,53.40
2022-08-22T10:47:14.003Z,53.30
2022-08-22T10:50:00.702Z,52.60
2022-08-22T10:52:35.729Z,52.10
2022-08-22T10:55:09.962Z,51.60
2022-08-22T10:58:04.662Z,51.40
2022-08-22T11:00:46.219Z,50.90
2022-08-22T11:03:34.587Z,50.70
2022-08-22T11:06:32.976Z,50.40
2022-08-22T11:09:02.421Z,50.20
2022-08-22T11:11:56.121Z,49.90
2022-08-22T11:14:37.955Z,49.00
2022-08-22T11:17:30.992Z,49.00
2022-08-22T11:20:19.630Z,49.20
2022-08-22T11:22:55.558Z,49.20
2022-08-22T11:25:36.254Z,49.60
2022-08-22T11:28:23.769Z,49.90
2022-08-22T11:31:36.522Z,50.00
2022-08-22T11:34:06.664Z,50.00
2022-08-22T11:36:46.426Z,50.20
2022-08-22T11:39:34.664Z,50.00
2022-08-22T11:42:04.304Z,49.70
2022-08-22T11:44:50.183Z,49.30
2022-08-22T11:47:26.336Z,49.00
2022-08-22T11:50:16.992Z,48.80
2022-08-22T11:53:15.892Z,48.80
2022-08-22T11:55:59.129Z,48.30
2022-08-22T11:58:38.489Z,48.00
2022-08-22T12:01:18.380Z,47.50
2022-08-22T12:04:00.605Z,47.00
2022-08-22T12:06:56.846Z,46.80
2022-08-22T12:09:36.500Z,45.80
2022-08-22T12:13:01.250Z,45.70
2022-08-22T12:15:40.475Z,45.10
2022-08-22T12:18:21.716Z,44.90
2022-08-22T12:20:57.432Z,45.20
2022-08-22T12:23:49.540Z,44.20
2022-08-22T12:26:16.972Z,43.50
2022-08-22T12:28:52.855Z,43.60
2022-08-22T12:31:50.240Z,43.60
2022-08-22T12:34:24.860Z,43.50
2022-08-22T12:37:03.041Z,43.60
2022-08-22T12:39:48.273Z,43.50
2022-08-22T12:42:46.184Z,43.50
2022-08-22T12:45:31.946Z,43.50
2022-08-22T12:48:11.973Z,43.40
2022-08-22T12:50:54.741Z,43.40
2022-08-22T12:53:33.283Z,43.00
2022-08-22T12:56:22.311Z,42.70
2022-08-22T12:59:22.178Z,42.60
2022-08-22T13:01:53.021Z,42.30
2022-08-22T13:04:34.184Z,42.80
2022-08-22T13:07:30.232Z,42.70
2022-08-22T13:10:03.632Z,42.40
2022-08-22T13:12:44.374Z,42.80
2022-08-22T13:15:20.182Z,42.60
2022-08-22T13:17:51.719Z,42.60
2022-08-22T13:20:38.833Z,42.60
2022-08-22T13:23:22.297Z,42.50
2022-08-22T13:26:01.305Z,42.50
2022-08-22T13:28:31.480Z,42.40
2022-08-22T13:30:59.738Z,42.40
2022-08-22T13:33:33.009Z,42.50
2022-08-22T13:36:06.571Z,42.50
2022-08-22T13:38:54.637Z,42.40
2022-08-22T13:41:42.616Z,42.20
2022-08-22T13:44:23.857Z,42.20
2022-08-22T13:47:13.177Z,42.20
2022-08-22T13:49:43.820Z,42.40
2022-08-22T13:52:38.647Z,42.40
2022-08-22T13:55:30.021Z,42.40
2022-08-22T13:58:24.942Z,42.20
2022-08-22T14:01:09.610Z,42.10
2022-08-22T14:03:45.445Z,42.20
2022-08-22T14:06:37.337Z,42.10
2022-08-22T14:09:15.281Z,41.90
2022-08-22T14:11:53.826Z,42.00
2022-08-22T14:14:30.370Z,41.80
2022-08-22T14:16:59.318Z,41.50
2022-08-22T14:19:52.806Z,41.40
2022-08-22T14:22:32.487Z,41.10
2022-08-22T14:25:18.115Z,40.90
2022-08-22T14:27:56.054Z,40.60
2022-08-22T14:30:28.975Z,40.40
2022-08-22T14:33:24.547Z,40.30
2022-08-22T14:35:59.158Z,40.10
2022-08-22T14:38:31.760Z,40.40
2022-08-22T14:41:14.251Z,40.50
2022-08-22T14:44:05.328Z,40.40
2022-08-22T14:46:41.411Z,40.40
2022-08-22T14:49:48.002Z,40.40
2022-08-22T14:52:29.931Z,40.40
2022-08-22T14:55:12.185Z,40.40
2022-08-22T14:58:00.685Z,40.40
2022-08-22T15:00:35.963Z,40.50
2022-08-22T15:03:23.576Z,40.70
2022-08-22T15:06:08.002Z,40.60
2022-08-22T15:08:48.172Z,40.80
2022-08-22T15:11:20.115Z,40.90
2022-08-22T15:13:59.101Z,40.90
2022-08-22T15:16:43.338Z,40.80
2022-08-22T15:19:24.638Z,41.00
2022-08-22T15:22:03.900Z,40.90
2022-08-22T15:24:31.578Z,41.10
2022-08-22T15:26:58.647Z,41.20
2022-08-22T15:29:31.141Z,41.10
2022-08-22T15:32:02.110Z,41.80
2022-08-22T15:34:38.150Z,41.30
2022-08-22T15:37:20.722Z,41.40
2022-08-22T15:40:08.081Z,41.40
2022-08-22T15:42:43.415Z,41.50
2022-08-22T15:45:29.971Z,41.60
2022-08-22T15:48:00.269Z,41.60
2022-08-22T15:50:39.456Z,41.60
2022-08-22T15:53:23.876Z,41.50
2022-08-22T15:56:10.791Z,41.40
2022-08-22T15:58:48.559Z,41.50
2022-08-22T16:01:20.804Z,41.80
2022-08-22T16:03:54.237Z,41.90
2022-08-22T16:06:42.535Z,42.00
2022-08-22T16:09:29.579Z,42.10
2022-08-22T16:11:58.776Z,42.20
2022-08-22T16:14:34.740Z,42.20
2022-08-22T16:17:07.059Z,42.20
2022-08-22T16:19:35.641Z,42.20
2022-08-22T16:22:06.645Z,42.80
2022-08-22T16:24:57.147Z,42.20
2022-08-22T16:27:26.439Z,42.40
2022-08-22T16:30:11.500Z,42.50
2022-08-22T16:32:39.725Z,42.70
2022-08-22T16:35:07.106Z,42.70
2022-08-22T16:37:48.009Z,42.70
2022-08-22T16:40:25.483Z,42.80
2022-08-22T16:43:12.908Z,42.90
2022-08-22T16:45:42.986Z,43.00
2022-08-22T16:48:39.425Z,43.20
2022-08-22T16:51:21.288Z,43.10
2022-08-22T16:54:02.481Z,43.20
2022-08-22T16:56:52.402Z,43.40
2022-08-22T16:59:38.186Z,43.40
2022-08-22T17:02:26.389Z,43.30
2022-08-22T17:05:14.972Z,43.10
2022-08-22T17:08:10.781Z,43.00
2022-08-22T17:10:55.776Z,43.00
2022-08-22T17:13:26.391Z,43.10
2022-08-22T17:16:13.474Z,43.30
2022-08-22T17:18:45.857Z,43.50
2022-08-22T17:21:32.994Z,43.50
2022-08-22T17:24:33.785Z,43.50
2022-08-22T17:27:06.160Z,43.60
2022-08-22T17:29:41.446Z,43.90
2022-08-22T17:32:28.590Z,44.00
2022-08-22T17:35:24.807Z,44.30
2022-08-22T17:38:02.575Z,44.30
2022-08-22T17:40:45.171Z,44.30
2022-08-22T17:43:21.705Z,44.80
2022-08-22T17:45:54.241Z,44.20
2022-08-22T17:48:55.414Z,44.30
2022-08-22T17:51:28.785Z,44.30
2022-08-22T17:54:13.147Z,44.40
2022-08-22T17:57:05.290Z,44.60
2022-08-22T17:59:46.676Z,44.70
2022-08-22T18:02:23.793Z,44.90
2022-08-22T18:05:08.629Z,45.00
2022-08-22T18:07:45.795Z,45.30
2022-08-22T18:10:19.798Z,45.50
2022-08-22T18:13:07.339Z,45.80
2022-08-22T18:15:45.661Z,46.00
2022-08-22T18:18:49.325Z,46.30
2022-08-22T18:21:33.726Z,46.50
2022-08-22T18:24:49.510Z,46.50
2022-08-22T18:27:45.451Z,46.70
2022-08-22T18:30:12.144Z,46.90
2022-08-22T18:33:06.033Z,46.90
2022-08-22T18:36:01.002Z,47.20
2022-08-22T18:38:48.721Z,47.50
2022-08-22T18:41:36.605Z,47.60
2022-08-22T18:44:24.877Z,47.80
2022-08-22T18:46:54.562Z,48.10
2022-08-22T18:49:24.246Z,48.30
2022-08-22T18:52:13.682Z,48.40
2022-08-22T18:55:15.543Z,48.80
2022-08-22T18:57:56.312Z,49.00
2022-08-22T19:00:48.534Z,49.30
2022-08-22T19:03:41.203Z,49.50
2022-08-22T19:06:22.675Z,50.00
2022-08-22T19:09:32.081Z,50.00
2022-08-22T19:12:24.916Z,50.50
2022-08-22T19:15:32.391Z,50.80
2022-08-22T19:18:24.803Z,51.20
2022-08-22T19:21:35.010Z,51.50
2022-08-22T19:24:33.076Z,51.80
2022-08-22T19:27:25.177Z,51.80
2022-08-22T19:30:01.177Z,52.20
2022-08-22T19:32:45.796Z,52.30
2022-08-22T19:35:41.847Z,52.70
2022-08-22T19:38:09.851Z,52.80
2022-08-22T19:40:45.798Z,53.00
2022-08-22T19:43:30.281Z,53.20
2022-08-22T19:45:58.730Z,53.30
2022-08-22T19:48:33.459Z,53.30
2022-08-22T19:51:20.814Z,54.10
2022-08-22T19:54:21.139Z,53.70
2022-08-22T19:57:29.191Z,53.80
2022-08-22T20:00:12.959Z,53.90
2022-08-22T20:03:18.622Z,54.00
2022-08-22T20:06:40.652Z,54.20
2022-08-22T20:09:42.658Z,54.30
2022-08-22T20:12:20.497Z,54.30
2022-08-22T20:14:48.520Z,54.40
2022-08-22T20:17:24.095Z,54.40
2022-08-22T20:22:52.769Z,54.60
2022-08-22T20:25:52.745Z,54.70
2022-08-22T20:28:32.547Z,54.80
2022-08-22T20:31:02.194Z,54.90
2022-08-22T20:33:37.762Z,55.00
2022-08-22T20:36:27.262Z,55.20
2022-08-22T20:39:03.095Z,55.20
2022-08-22T20:41:46.479Z,55.30
2022-08-22T20:44:33.340Z,55.40
2022-08-22T20:47:12.948Z,55.60
2022-08-22T20:49:48.200Z,55.70
2022-08-22T20:52:35.749Z,55.60
2022-08-22T20:55:11.805Z,55.90
2022-08-22T20:58:03.448Z,56.00
2022-08-22T21:00:35.918Z,56.10
2022-08-22T21:03:27.933Z,56.00
2022-08-22T21:05:54.647Z,56.20
2022-08-22T21:08:24.721Z,56.20
2022-08-22T21:11:17.194Z,56.40
2022-08-22T21:13:43.977Z,56.50
2022-08-22T21:16:17.892Z,56.50
2022-08-22T21:18:50.596Z,56.60
2022-08-22T21:21:22.318Z,56.60
2022-08-22T21:23:58.687Z,56.70
2022-08-22T21:26:47.450Z,56.70
2022-08-22T21:29:14.051Z,56.60
2022-08-22T21:31:59.257Z,56.70
2022-08-22T21:34:32.685Z,56.70
2022-08-22T21:37:07.092Z,56.80
2022-08-22T21:39:43.891Z,57.00
2022-08-22T21:42:15.528Z,57.10
2022-08-22T21:44:54.397Z,57.20
2022-08-22T21:47:36.991Z,57.30
2022-08-22T21:50:12.736Z,57.40
2022-08-22T21:52:40.950Z,57.50
2022-08-22T21:55:27.506Z,57.40
2022-08-22T21:58:34.904Z,57.10
2022-08-22T22:01:24.941Z,56.80
2022-08-22T22:03:51.885Z,56.60
2022-08-22T22:06:18.589Z,56.50
2022-08-22T22:08:46.196Z,56.30
2022-08-22T22:11:15.391Z,56.20
2022-08-22T22:13:42.832Z,56.10
2022-08-22T22:16:14.257Z,55.90
2022-08-22T22:18:41.068Z,55.70
2022-08-22T22:21:08.453Z,55.70
2022-08-22T22:23:35.223Z,55.70
2022-08-22T22:26:03.993Z,55.50
2022-08-22T22:28:33.854Z,55.60
2022-08-22T22:31:01.110Z,55.60
2022-08-22T22:33:31.052Z,55.60
2022-08-22T22:36:00.964Z,55.50
2022-08-22T22:38:27.705Z,55.50
2022-08-22T22:40:54.385Z,55.60
2022-08-22T22:43:21.122Z,55.60
2022-08-22T22:45:47.923Z,55.60
2022-08-22T22:48:18.172Z,55.50
2022-08-22T22:50:52.388Z,55.50
2022-08-22T22:53:20.048Z,55.50
2022-08-22T22:55:59.958Z,55.60
2022-08-22T22:58:28.027Z,55.60
2022-08-22T23:00:55.826Z,55.70
2022-08-22T23:03:22.973Z,55.70
2022-08-22T23:05:49.703Z,55.80
2022-08-22T23:08:16.477Z,55.90
2022-08-22T23:10:43.233Z,55.90
2022-08-22T23:13:09.919Z,55.90
2022-08-22T23:15:37.519Z,55.90
2022-08-22T23:18:04.323Z,56.00
2022-08-22T23:20:31.123Z,55.90
2022-08-22T23:22:59.493Z,56.20
2022-08-22T23:25:26.797Z,56.20
2022-08-22T23:27:54.165Z,56.20
2022-08-22T23:30:21.682Z,56.30
2022-08-22T23:32:48.452Z,56.40
2022-08-22T23:35:15.212Z,56.50
2022-08-22T23:37:41.896Z,56.60
2022-08-22T23:40:09.545Z,56.70
2022-08-22T23:42:36.411Z,56.70
2022-08-22T23:45:03.398Z,56.90
2022-08-22T23:47:30.188Z,56.90
2022-08-22T23:49:56.866Z,57.00
2022-08-22T23:52:23.621Z,57.20
2022-08-22T23:54:51.561Z,57.30
2022-08-22T23:57:26.253Z,57.40
2022-08-22T23:59:57.628Z,57.40
